sensor_id;sensor_type;location;lat;lon;timestamp;P1;durP1;ratioP1;P2;durP2;ratioP2
62848;SDS011;48941;49.516;8.286;2023-04-12T00:01:27;11.45;;;3.25;;
62848;SDS011;48941;49.516;8.286;2023-04-12T00:03:55;8.43;;;3.35;;
62848;SDS011;48941;49.516;8.286;2023-04-12T00:06:25;9.55;;;2.83;;
62848;SDS011;48941;49.516;8.286;2023-04-12T00:08:57;10.57;;;2.72;;
62848;SDS011;48941;49.516;8.286;2023-04-12T00:11:25;5.03;;;2.50;;
62848;SDS011;48941;49.516;8.286;2023-04-12T00:13:53;5.70;;;2.50;;
62848;SDS011;48941;49.516;8.286;2023-04-12T00:16:21;10.70;;;2.65;;
62848;SDS011;48941;49.516;8.286;2023-04-12T00:18:49;5.20;;;2.55;;
62848;SDS011;48941;49.516;8.286;2023-04-12T00:21:17;4.85;;;2.30;;
62848;SDS011;48941;49.516;8.286;2023-04-12T00:23:46;6.95;;;2.72;;
62848;SDS011;48941;49.516;8.286;2023-04-12T00:26:14;5.88;;;2.25;;
62848;SDS011;48941;49.516;8.286;2023-04-12T00:28:43;5.07;;;2.10;;
62848;SDS011;48941;49.516;8.286;2023-04-12T00:31:11;7.53;;;2.38;;
62848;SDS011;48941;49.516;8.286;2023-04-12T00:33:39;9.02;;;2.42;;
62848;SDS011;48941;49.516;8.286;2023-04-12T00:36:07;5.95;;;2.47;;
62848;SDS011;48941;49.516;8.286;2023-04-12T00:38:36;7.75;;;2.40;;
62848;SDS011;48941;49.516;8.286;2023-04-12T00:41:05;7.13;;;2.40;;
62848;SDS011;48941;49.516;8.286;2023-04-12T00:43:33;7.93;;;2.17;;
62848;SDS011;48941;49.516;8.286;2023-04-12T00:46:01;6.55;;;2.05;;
62848;SDS011;48941;49.516;8.286;2023-04-12T00:48:29;10.10;;;2.22;;
62848;SDS011;48941;49.516;8.286;2023-04-12T00:50:58;5.00;;;2.08;;
62848;SDS011;48941;49.516;8.286;2023-04-12T00:53:26;5.15;;;2.25;;
62848;SDS011;48941;49.516;8.286;2023-04-12T00:55:54;4.72;;;1.80;;
62848;SDS011;48941;49.516;8.286;2023-04-12T00:58:24;5.20;;;2.53;;
62848;SDS011;48941;49.516;8.286;2023-04-12T01:00:52;6.00;;;2.10;;
62848;SDS011;48941;49.516;8.286;2023-04-12T01:03:20;4.95;;;1.98;;
62848;SDS011;48941;49.516;8.286;2023-04-12T01:05:51;6.45;;;2.53;;
62848;SDS011;48941;49.516;8.286;2023-04-12T01:08:33;6.13;;;2.30;;
62848;SDS011;48941;49.516;8.286;2023-04-12T01:11:12;4.88;;;1.98;;
62848;SDS011;48941;49.516;8.286;2023-04-12T01:13:49;3.13;;;1.92;;
62848;SDS011;48941;49.516;8.286;2023-04-12T01:16:23;6.10;;;1.92;;
62848;SDS011;48941;49.516;8.286;2023-04-12T01:18:58;6.30;;;2.10;;
62848;SDS011;48941;49.516;8.286;2023-04-12T01:21:34;3.58;;;2.00;;
62848;SDS011;48941;49.516;8.286;2023-04-12T01:24:14;4.35;;;2.05;;
62848;SDS011;48941;49.516;8.286;2023-04-12T01:26:54;7.15;;;2.47;;
62848;SDS011;48941;49.516;8.286;2023-04-12T01:29:27;5.82;;;2.17;;
62848;SDS011;48941;49.516;8.286;2023-04-12T01:31:57;7.30;;;2.80;;
62848;SDS011;48941;49.516;8.286;2023-04-12T01:34:28;10.75;;;2.65;;
62848;SDS011;48941;49.516;8.286;2023-04-12T01:37:01;6.07;;;2.50;;
62848;SDS011;48941;49.516;8.286;2023-04-12T01:39:29;5.88;;;2.47;;
62848;SDS011;48941;49.516;8.286;2023-04-12T01:41:59;8.15;;;2.80;;
62848;SDS011;48941;49.516;8.286;2023-04-12T01:44:28;4.13;;;2.47;;
62848;SDS011;48941;49.516;8.286;2023-04-12T01:46:56;7.63;;;2.90;;
62848;SDS011;48941;49.516;8.286;2023-04-12T01:49:23;7.07;;;2.97;;
62848;SDS011;48941;49.516;8.286;2023-04-12T01:52:02;6.85;;;2.80;;
62848;SDS011;48941;49.516;8.286;2023-04-12T01:54:40;5.22;;;2.47;;
62848;SDS011;48941;49.516;8.286;2023-04-12T01:57:09;5.38;;;2.35;;
62848;SDS011;48941;49.516;8.286;2023-04-12T01:59:39;5.45;;;2.58;;
62848;SDS011;48941;49.516;8.286;2023-04-12T02:02:08;6.07;;;2.40;;
62848;SDS011;48941;49.516;8.286;2023-04-12T02:04:37;4.72;;;2.22;;
62848;SDS011;48941;49.516;8.286;2023-04-12T02:07:06;6.05;;;2.25;;
62848;SDS011;48941;49.516;8.286;2023-04-12T02:09:35;6.88;;;2.47;;
62848;SDS011;48941;49.516;8.286;2023-04-12T02:12:04;7.40;;;2.42;;
62848;SDS011;48941;49.516;8.286;2023-04-12T02:14:33;5.20;;;2.35;;
62848;SDS011;48941;49.516;8.286;2023-04-12T02:17:02;6.88;;;2.85;;
62848;SDS011;48941;49.516;8.286;2023-04-12T02:19:30;5.53;;;2.38;;
62848;SDS011;48941;49.516;8.286;2023-04-12T02:21:58;6.18;;;2.50;;
62848;SDS011;48941;49.516;8.286;2023-04-12T02:24:26;5.47;;;2.40;;
62848;SDS011;48941;49.516;8.286;2023-04-12T02:26:54;5.85;;;2.53;;
62848;SDS011;48941;49.516;8.286;2023-04-12T02:29:21;5.40;;;2.60;;
62848;SDS011;48941;49.516;8.286;2023-04-12T02:31:49;7.18;;;2.50;;
62848;SDS011;48941;49.516;8.286;2023-04-12T02:34:19;5.55;;;2.38;;
62848;SDS011;48941;49.516;8.286;2023-04-12T02:36:47;5.07;;;2.30;;
62848;SDS011;48941;49.516;8.286;2023-04-12T02:39:15;4.72;;;2.10;;
62848;SDS011;48941;49.516;8.286;2023-04-12T02:41:44;5.75;;;2.50;;
62848;SDS011;48941;49.516;8.286;2023-04-12T02:44:12;5.18;;;2.33;;
62848;SDS011;48941;49.516;8.286;2023-04-12T02:46:40;8.02;;;2.83;;
62848;SDS011;48941;49.516;8.286;2023-04-12T02:49:07;5.93;;;2.20;;
62848;SDS011;48941;49.516;8.286;2023-04-12T02:51:37;4.38;;;2.13;;
62848;SDS011;48941;49.516;8.286;2023-04-12T02:54:05;7.05;;;2.63;;
62848;SDS011;48941;49.516;8.286;2023-04-12T02:56:33;4.78;;;2.22;;
62848;SDS011;48941;49.516;8.286;2023-04-12T02:59:02;5.30;;;2.28;;
62848;SDS011;48941;49.516;8.286;2023-04-12T03:01:29;7.38;;;2.20;;
62848;SDS011;48941;49.516;8.286;2023-04-12T03:03:58;4.22;;;2.40;;
62848;SDS011;48941;49.516;8.286;2023-04-12T03:06:27;5.22;;;2.70;;
62848;SDS011;48941;49.516;8.286;2023-04-12T03:08:56;10.85;;;2.50;;
62848;SDS011;48941;49.516;8.286;2023-04-12T03:11:24;5.65;;;2.35;;
62848;SDS011;48941;49.516;8.286;2023-04-12T03:13:52;8.63;;;2.63;;
62848;SDS011;48941;49.516;8.286;2023-04-12T03:16:21;4.57;;;2.38;;
62848;SDS011;48941;49.516;8.286;2023-04-12T03:18:49;8.18;;;2.65;;
62848;SDS011;48941;49.516;8.286;2023-04-12T03:21:17;6.50;;;2.55;;
62848;SDS011;48941;49.516;8.286;2023-04-12T03:23:45;8.05;;;2.60;;
62848;SDS011;48941;49.516;8.286;2023-04-12T03:26:14;7.07;;;2.55;;
62848;SDS011;48941;49.516;8.286;2023-04-12T03:28:45;6.97;;;2.90;;
62848;SDS011;48941;49.516;8.286;2023-04-12T03:31:13;8.73;;;2.70;;
62848;SDS011;48941;49.516;8.286;2023-04-12T03:33:46;6.57;;;2.97;;
62848;SDS011;48941;49.516;8.286;2023-04-12T03:36:14;6.03;;;3.03;;
62848;SDS011;48941;49.516;8.286;2023-04-12T03:38:42;7.97;;;3.50;;
62848;SDS011;48941;49.516;8.286;2023-04-12T03:41:10;5.93;;;3.08;;
62848;SDS011;48941;49.516;8.286;2023-04-12T03:43:39;6.45;;;3.50;;
62848;SDS011;48941;49.516;8.286;2023-04-12T03:46:08;8.68;;;3.75;;
62848;SDS011;48941;49.516;8.286;2023-04-12T03:48:36;8.93;;;4.20;;
62848;SDS011;48941;49.516;8.286;2023-04-12T03:51:04;12.48;;;4.13;;
62848;SDS011;48941;49.516;8.286;2023-04-12T03:53:33;12.85;;;5.53;;
62848;SDS011;48941;49.516;8.286;2023-04-12T03:56:02;13.27;;;5.47;;
62848;SDS011;48941;49.516;8.286;2023-04-12T03:58:29;11.25;;;5.68;;
62848;SDS011;48941;49.516;8.286;2023-04-12T04:01:00;12.98;;;5.82;;
62848;SDS011;48941;49.516;8.286;2023-04-12T04:03:29;10.85;;;5.22;;
62848;SDS011;48941;49.516;8.286;2023-04-12T04:06:00;12.13;;;5.53;;
62848;SDS011;48941;49.516;8.286;2023-04-12T04:08:28;8.45;;;4.10;;
62848;SDS011;48941;49.516;8.286;2023-04-12T04:10:57;7.57;;;3.92;;
62848;SDS011;48941;49.516;8.286;2023-04-12T04:13:26;8.40;;;3.30;;
62848;SDS011;48941;49.516;8.286;2023-04-12T04:15:57;5.05;;;2.70;;
62848;SDS011;48941;49.516;8.286;2023-04-12T04:18:28;8.70;;;3.20;;
62848;SDS011;48941;49.516;8.286;2023-04-12T04:20:55;7.85;;;2.97;;
62848;SDS011;48941;49.516;8.286;2023-04-12T04:23:23;6.20;;;2.63;;
62848;SDS011;48941;49.516;8.286;2023-04-12T04:25:53;7.15;;;2.75;;
62848;SDS011;48941;49.516;8.286;2023-04-12T04:28:20;7.18;;;3.38;;
62848;SDS011;48941;49.516;8.286;2023-04-12T04:30:48;6.05;;;3.00;;
62848;SDS011;48941;49.516;8.286;2023-04-12T04:33:16;7.13;;;2.70;;
62848;SDS011;48941;49.516;8.286;2023-04-12T04:35:46;8.85;;;2.90;;
62848;SDS011;48941;49.516;8.286;2023-04-12T04:38:14;4.53;;;2.70;;
62848;SDS011;48941;49.516;8.286;2023-04-12T04:40:42;4.82;;;2.28;;
62848;SDS011;48941;49.516;8.286;2023-04-12T04:43:09;7.40;;;2.67;;
62848;SDS011;48941;49.516;8.286;2023-04-12T04:45:39;9.50;;;2.60;;
62848;SDS011;48941;49.516;8.286;2023-04-12T04:48:08;3.33;;;2.25;;
62848;SDS011;48941;49.516;8.286;2023-04-12T04:50:35;4.78;;;2.42;;
62848;SDS011;48941;49.516;8.286;2023-04-12T04:53:04;5.55;;;2.88;;
62848;SDS011;48941;49.516;8.286;2023-04-12T04:55:32;5.65;;;2.55;;
62848;SDS011;48941;49.516;8.286;2023-04-12T04:58:00;5.38;;;2.22;;
62848;SDS011;48941;49.516;8.286;2023-04-12T05:00:28;5.10;;;2.15;;
62848;SDS011;48941;49.516;8.286;2023-04-12T05:02:55;6.25;;;2.50;;
62848;SDS011;48941;49.516;8.286;2023-04-12T05:05:23;3.17;;;2.10;;
62848;SDS011;48941;49.516;8.286;2023-04-12T05:07:51;3.67;;;2.30;;
62848;SDS011;48941;49.516;8.286;2023-04-12T05:10:20;4.50;;;2.35;;
62848;SDS011;48941;49.516;8.286;2023-04-12T05:12:48;2.78;;;1.90;;
62848;SDS011;48941;49.516;8.286;2023-04-12T05:15:17;2.83;;;2.10;;
62848;SDS011;48941;49.516;8.286;2023-04-12T05:17:46;5.43;;;2.63;;
62848;SDS011;48941;49.516;8.286;2023-04-12T05:20:13;4.88;;;2.00;;
62848;SDS011;48941;49.516;8.286;2023-04-12T05:22:42;4.25;;;2.50;;
62848;SDS011;48941;49.516;8.286;2023-04-12T05:25:09;4.32;;;2.40;;
62848;SDS011;48941;49.516;8.286;2023-04-12T05:27:39;5.65;;;2.70;;
62848;SDS011;48941;49.516;8.286;2023-04-12T05:30:07;6.68;;;2.40;;
62848;SDS011;48941;49.516;8.286;2023-04-12T05:32:35;6.50;;;2.65;;
62848;SDS011;48941;49.516;8.286;2023-04-12T05:35:03;7.65;;;2.78;;
62848;SDS011;48941;49.516;8.286;2023-04-12T05:37:32;5.13;;;2.42;;
62848;SDS011;48941;49.516;8.286;2023-04-12T05:39:59;8.27;;;2.65;;
62848;SDS011;48941;49.516;8.286;2023-04-12T05:42:27;10.07;;;2.95;;
62848;SDS011;48941;49.516;8.286;2023-04-12T05:44:56;5.68;;;2.58;;
62848;SDS011;48941;49.516;8.286;2023-04-12T05:47:24;4.97;;;2.55;;
62848;SDS011;48941;49.516;8.286;2023-04-12T05:49:52;6.50;;;2.70;;
62848;SDS011;48941;49.516;8.286;2023-04-12T05:52:20;6.53;;;3.13;;
62848;SDS011;48941;49.516;8.286;2023-04-12T05:54:48;6.07;;;2.53;;
62848;SDS011;48941;49.516;8.286;2023-04-12T05:57:16;7.07;;;3.20;;
62848;SDS011;48941;49.516;8.286;2023-04-12T05:59:44;7.43;;;2.83;;
62848;SDS011;48941;49.516;8.286;2023-04-12T06:02:13;7.63;;;2.50;;
62848;SDS011;48941;49.516;8.286;2023-04-12T06:04:41;3.78;;;2.30;;
62848;SDS011;48941;49.516;8.286;2023-04-12T06:07:16;9.07;;;2.55;;
62848;SDS011;48941;49.516;8.286;2023-04-12T06:09:45;4.05;;;2.60;;
62848;SDS011;48941;49.516;8.286;2023-04-12T06:12:15;4.50;;;2.80;;
62848;SDS011;48941;49.516;8.286;2023-04-12T06:14:42;7.22;;;2.45;;
62848;SDS011;48941;49.516;8.286;2023-04-12T06:17:10;4.80;;;2.53;;
62848;SDS011;48941;49.516;8.286;2023-04-12T06:19:39;4.10;;;2.50;;
62848;SDS011;48941;49.516;8.286;2023-04-12T06:22:07;8.63;;;2.20;;
62848;SDS011;48941;49.516;8.286;2023-04-12T06:24:35;5.78;;;2.45;;
62848;SDS011;48941;49.516;8.286;2023-04-12T06:27:02;10.32;;;3.40;;
62848;SDS011;48941;49.516;8.286;2023-04-12T06:29:30;7.00;;;2.50;;
62848;SDS011;48941;49.516;8.286;2023-04-12T06:31:58;6.70;;;3.47;;
62848;SDS011;48941;49.516;8.286;2023-04-12T06:34:26;6.00;;;2.22;;
62848;SDS011;48941;49.516;8.286;2023-04-12T06:36:55;6.10;;;2.70;;
62848;SDS011;48941;49.516;8.286;2023-04-12T06:39:23;6.18;;;2.42;;
62848;SDS011;48941;49.516;8.286;2023-04-12T06:41:51;4.80;;;2.45;;
62848;SDS011;48941;49.516;8.286;2023-04-12T06:44:19;8.18;;;3.15;;
62848;SDS011;48941;49.516;8.286;2023-04-12T06:46:46;5.45;;;2.67;;
62848;SDS011;48941;49.516;8.286;2023-04-12T06:49:14;5.07;;;2.75;;
62848;SDS011;48941;49.516;8.286;2023-04-12T06:51:42;4.45;;;2.65;;
62848;SDS011;48941;49.516;8.286;2023-04-12T06:54:12;3.92;;;2.67;;
62848;SDS011;48941;49.516;8.286;2023-04-12T06:56:40;9.45;;;2.53;;
62848;SDS011;48941;49.516;8.286;2023-04-12T06:59:08;5.93;;;2.78;;
62848;SDS011;48941;49.516;8.286;2023-04-12T07:01:35;4.15;;;2.47;;
62848;SDS011;48941;49.516;8.286;2023-04-12T07:04:04;7.53;;;2.70;;
62848;SDS011;48941;49.516;8.286;2023-04-12T07:06:32;6.43;;;2.97;;
62848;SDS011;48941;49.516;8.286;2023-04-12T07:09:00;7.93;;;3.25;;
62848;SDS011;48941;49.516;8.286;2023-04-12T07:11:29;6.90;;;3.30;;
62848;SDS011;48941;49.516;8.286;2023-04-12T07:13:57;8.77;;;3.63;;
62848;SDS011;48941;49.516;8.286;2023-04-12T07:16:28;9.15;;;3.33;;
62848;SDS011;48941;49.516;8.286;2023-04-12T07:18:57;7.13;;;3.17;;
62848;SDS011;48941;49.516;8.286;2023-04-12T07:21:26;4.85;;;3.15;;
62848;SDS011;48941;49.516;8.286;2023-04-12T07:23:54;6.20;;;3.03;;
62848;SDS011;48941;49.516;8.286;2023-04-12T07:26:21;9.75;;;3.80;;
62848;SDS011;48941;49.516;8.286;2023-04-12T07:28:51;5.38;;;3.30;;
62848;SDS011;48941;49.516;8.286;2023-04-12T07:31:20;9.35;;;3.78;;
62848;SDS011;48941;49.516;8.286;2023-04-12T07:33:48;10.02;;;3.65;;
62848;SDS011;48941;49.516;8.286;2023-04-12T07:36:17;11.32;;;3.90;;
62848;SDS011;48941;49.516;8.286;2023-04-12T07:38:47;6.57;;;3.40;;
62848;SDS011;48941;49.516;8.286;2023-04-12T07:41:20;7.45;;;3.72;;
62848;SDS011;48941;49.516;8.286;2023-04-12T07:43:48;11.18;;;4.70;;
62848;SDS011;48941;49.516;8.286;2023-04-12T07:46:17;8.30;;;4.35;;
62848;SDS011;48941;49.516;8.286;2023-04-12T07:48:46;9.85;;;4.25;;
62848;SDS011;48941;49.516;8.286;2023-04-12T07:51:13;7.25;;;4.22;;
62848;SDS011;48941;49.516;8.286;2023-04-12T07:53:41;5.88;;;3.80;;
62848;SDS011;48941;49.516;8.286;2023-04-12T07:56:13;9.32;;;3.97;;
62848;SDS011;48941;49.516;8.286;2023-04-12T07:58:41;7.28;;;3.70;;
62848;SDS011;48941;49.516;8.286;2023-04-12T08:01:09;9.40;;;4.13;;
62848;SDS011;48941;49.516;8.286;2023-04-12T08:03:39;8.65;;;4.03;;
62848;SDS011;48941;49.516;8.286;2023-04-12T08:06:08;7.95;;;4.05;;
62848;SDS011;48941;49.516;8.286;2023-04-12T08:08:36;8.40;;;4.05;;
62848;SDS011;48941;49.516;8.286;2023-04-12T08:11:04;9.40;;;3.97;;
62848;SDS011;48941;49.516;8.286;2023-04-12T08:13:32;9.23;;;4.00;;
62848;SDS011;48941;49.516;8.286;2023-04-12T08:16:01;10.93;;;3.72;;
62848;SDS011;48941;49.516;8.286;2023-04-12T08:18:28;7.15;;;4.05;;
62848;SDS011;48941;49.516;8.286;2023-04-12T08:20:57;8.40;;;3.90;;
62848;SDS011;48941;49.516;8.286;2023-04-12T08:23:26;10.93;;;3.78;;
62848;SDS011;48941;49.516;8.286;2023-04-12T08:25:54;4.43;;;3.25;;
62848;SDS011;48941;49.516;8.286;2023-04-12T08:28:28;6.45;;;3.00;;
62848;SDS011;48941;49.516;8.286;2023-04-12T08:30:56;4.38;;;2.95;;
62848;SDS011;48941;49.516;8.286;2023-04-12T08:33:24;6.10;;;3.10;;
62848;SDS011;48941;49.516;8.286;2023-04-12T08:35:52;5.28;;;2.80;;
62848;SDS011;48941;49.516;8.286;2023-04-12T08:38:22;5.05;;;2.95;;
62848;SDS011;48941;49.516;8.286;2023-04-12T08:41:07;5.63;;;3.25;;
62848;SDS011;48941;49.516;8.286;2023-04-12T08:43:34;7.53;;;3.58;;
62848;SDS011;48941;49.516;8.286;2023-04-12T08:46:04;8.13;;;3.22;;
62848;SDS011;48941;49.516;8.286;2023-04-12T08:48:32;7.75;;;3.58;;
62848;SDS011;48941;49.516;8.286;2023-04-12T08:51:01;4.30;;;3.08;;
62848;SDS011;48941;49.516;8.286;2023-04-12T08:53:31;6.57;;;3.20;;
62848;SDS011;48941;49.516;8.286;2023-04-12T08:55:59;6.95;;;3.47;;
62848;SDS011;48941;49.516;8.286;2023-04-12T08:58:27;6.07;;;3.38;;
62848;SDS011;48941;49.516;8.286;2023-04-12T09:00:57;9.93;;;3.95;;
62848;SDS011;48941;49.516;8.286;2023-04-12T09:03:25;7.45;;;3.28;;
62848;SDS011;48941;49.516;8.286;2023-04-12T09:05:55;5.55;;;3.28;;
62848;SDS011;48941;49.516;8.286;2023-04-12T09:08:24;7.15;;;3.33;;
62848;SDS011;48941;49.516;8.286;2023-04-12T09:10:53;15.45;;;3.53;;
62848;SDS011;48941;49.516;8.286;2023-04-12T09:13:29;5.53;;;3.20;;
62848;SDS011;48941;49.516;8.286;2023-04-12T09:15:58;9.30;;;3.63;;
62848;SDS011;48941;49.516;8.286;2023-04-12T09:18:26;8.27;;;3.45;;
62848;SDS011;48941;49.516;8.286;2023-04-12T09:21:04;4.72;;;3.28;;
62848;SDS011;48941;49.516;8.286;2023-04-12T09:23:34;5.38;;;3.60;;
62848;SDS011;48941;49.516;8.286;2023-04-12T09:26:03;5.90;;;3.25;;
62848;SDS011;48941;49.516;8.286;2023-04-12T09:28:33;8.90;;;3.95;;
62848;SDS011;48941;49.516;8.286;2023-04-12T09:31:01;8.50;;;3.67;;
62848;SDS011;48941;49.516;8.286;2023-04-12T09:33:33;8.98;;;4.00;;
62848;SDS011;48941;49.516;8.286;2023-04-12T09:36:03;6.63;;;3.88;;
62848;SDS011;48941;49.516;8.286;2023-04-12T09:38:34;7.68;;;3.30;;
62848;SDS011;48941;49.516;8.286;2023-04-12T09:41:18;8.38;;;3.83;;
62848;SDS011;48941;49.516;8.286;2023-04-12T09:43:52;6.18;;;3.78;;
62848;SDS011;48941;49.516;8.286;2023-04-12T09:46:20;10.32;;;3.72;;
62848;SDS011;48941;49.516;8.286;2023-04-12T09:48:49;8.93;;;3.70;;
62848;SDS011;48941;49.516;8.286;2023-04-12T09:51:22;8.23;;;3.88;;
62848;SDS011;48941;49.516;8.286;2023-04-12T09:53:54;6.20;;;3.95;;
62848;SDS011;48941;49.516;8.286;2023-04-12T09:56:28;7.03;;;3.75;;
62848;SDS011;48941;49.516;8.286;2023-04-12T09:58:59;9.07;;;4.30;;
62848;SDS011;48941;49.516;8.286;2023-04-12T10:01:29;8.15;;;4.13;;
62848;SDS011;48941;49.516;8.286;2023-04-12T10:04:02;8.20;;;4.30;;
62848;SDS011;48941;49.516;8.286;2023-04-12T10:06:33;8.20;;;4.45;;
62848;SDS011;48941;49.516;8.286;2023-04-12T10:09:02;7.30;;;3.95;;
62848;SDS011;48941;49.516;8.286;2023-04-12T10:11:32;7.78;;;4.03;;
62848;SDS011;48941;49.516;8.286;2023-04-12T10:14:01;6.75;;;3.90;;
62848;SDS011;48941;49.516;8.286;2023-04-12T10:16:29;6.75;;;4.07;;
62848;SDS011;48941;49.516;8.286;2023-04-12T10:19:01;7.95;;;3.92;;
62848;SDS011;48941;49.516;8.286;2023-04-12T10:21:30;8.95;;;4.50;;
62848;SDS011;48941;49.516;8.286;2023-04-12T10:23:57;11.95;;;4.28;;
62848;SDS011;48941;49.516;8.286;2023-04-12T10:26:26;5.78;;;3.80;;
62848;SDS011;48941;49.516;8.286;2023-04-12T10:32:17;6.85;;;4.05;;
62848;SDS011;48941;49.516;8.286;2023-04-12T10:34:50;5.38;;;3.83;;
62848;SDS011;48941;49.516;8.286;2023-04-12T10:37:18;8.90;;;4.13;;
62848;SDS011;48941;49.516;8.286;2023-04-12T10:39:50;6.80;;;3.70;;
62848;SDS011;48941;49.516;8.286;2023-04-12T10:42:20;6.72;;;4.10;;
62848;SDS011;48941;49.516;8.286;2023-04-12T10:44:54;7.22;;;3.85;;
62848;SDS011;48941;49.516;8.286;2023-04-12T10:50:27;6.45;;;4.03;;
62848;SDS011;48941;49.516;8.286;2023-04-12T10:55:54;7.38;;;3.90;;
62848;SDS011;48941;49.516;8.286;2023-04-12T11:01:26;4.72;;;3.28;;
62848;SDS011;48941;49.516;8.286;2023-04-12T11:06:49;6.70;;;3.67;;
62848;SDS011;48941;49.516;8.286;2023-04-12T11:09:25;5.80;;;3.90;;
62848;SDS011;48941;49.516;8.286;2023-04-12T11:11:55;8.55;;;3.38;;
62848;SDS011;48941;49.516;8.286;2023-04-12T11:14:26;4.68;;;3.38;;
62848;SDS011;48941;49.516;8.286;2023-04-12T11:19:53;6.22;;;3.70;;
62848;SDS011;48941;49.516;8.286;2023-04-12T11:22:30;6.55;;;3.95;;
62848;SDS011;48941;49.516;8.286;2023-04-12T11:24:59;6.85;;;3.50;;
62848;SDS011;48941;49.516;8.286;2023-04-12T11:27:28;7.07;;;3.97;;
62848;SDS011;48941;49.516;8.286;2023-04-12T11:29:57;6.07;;;3.70;;
62848;SDS011;48941;49.516;8.286;2023-04-12T11:32:28;10.07;;;3.70;;
62848;SDS011;48941;49.516;8.286;2023-04-12T11:34:57;7.30;;;3.67;;
62848;SDS011;48941;49.516;8.286;2023-04-12T11:37:25;5.68;;;3.25;;
62848;SDS011;48941;49.516;8.286;2023-04-12T11:39:54;6.63;;;3.40;;
62848;SDS011;48941;49.516;8.286;2023-04-12T11:42:24;8.50;;;3.80;;
62848;SDS011;48941;49.516;8.286;2023-04-12T11:44:54;6.45;;;3.80;;
62848;SDS011;48941;49.516;8.286;2023-04-12T11:47:31;6.93;;;4.07;;
62848;SDS011;48941;49.516;8.286;2023-04-12T11:50:00;6.78;;;3.83;;
62848;SDS011;48941;49.516;8.286;2023-04-12T11:52:28;9.38;;;3.97;;
62848;SDS011;48941;49.516;8.286;2023-04-12T11:54:59;7.18;;;4.13;;
62848;SDS011;48941;49.516;8.286;2023-04-12T11:57:29;9.05;;;4.00;;
62848;SDS011;48941;49.516;8.286;2023-04-12T11:59:58;4.70;;;3.35;;
62848;SDS011;48941;49.516;8.286;2023-04-12T12:02:26;5.97;;;3.42;;
62848;SDS011;48941;49.516;8.286;2023-04-12T12:05:05;7.05;;;3.75;;
62848;SDS011;48941;49.516;8.286;2023-04-12T12:07:34;6.22;;;3.42;;
62848;SDS011;48941;49.516;8.286;2023-04-12T12:10:03;5.78;;;3.53;;
62848;SDS011;48941;49.516;8.286;2023-04-12T12:12:32;6.88;;;3.63;;
62848;SDS011;48941;49.516;8.286;2023-04-12T12:15:00;6.63;;;3.47;;
62848;SDS011;48941;49.516;8.286;2023-04-12T12:17:29;5.45;;;3.50;;
62848;SDS011;48941;49.516;8.286;2023-04-12T12:19:57;5.68;;;3.58;;
62848;SDS011;48941;49.516;8.286;2023-04-12T12:22:28;5.25;;;3.20;;
62848;SDS011;48941;49.516;8.286;2023-04-12T12:24:56;8.43;;;3.20;;
62848;SDS011;48941;49.516;8.286;2023-04-12T12:27:32;7.05;;;3.47;;
62848;SDS011;48941;49.516;8.286;2023-04-12T12:30:02;8.70;;;3.35;;
62848;SDS011;48941;49.516;8.286;2023-04-12T12:32:31;3.10;;;2.75;;
62848;SDS011;48941;49.516;8.286;2023-04-12T12:35:00;6.50;;;3.10;;
62848;SDS011;48941;49.516;8.286;2023-04-12T12:37:29;6.47;;;3.08;;
62848;SDS011;48941;49.516;8.286;2023-04-12T12:40:04;4.47;;;2.88;;
62848;SDS011;48941;49.516;8.286;2023-04-12T12:42:42;6.00;;;3.22;;
62848;SDS011;48941;49.516;8.286;2023-04-12T12:45:12;14.77;;;3.70;;
62848;SDS011;48941;49.516;8.286;2023-04-12T12:47:44;7.35;;;3.10;;
62848;SDS011;48941;49.516;8.286;2023-04-12T12:50:17;5.32;;;3.10;;
62848;SDS011;48941;49.516;8.286;2023-04-12T12:52:51;4.47;;;2.60;;
62848;SDS011;48941;49.516;8.286;2023-04-12T12:55:21;6.10;;;2.80;;
62848;SDS011;48941;49.516;8.286;2023-04-12T12:57:51;5.75;;;2.78;;
62848;SDS011;48941;49.516;8.286;2023-04-12T13:00:33;4.10;;;2.63;;
62848;SDS011;48941;49.516;8.286;2023-04-12T13:03:01;4.53;;;2.60;;
62848;SDS011;48941;49.516;8.286;2023-04-12T13:05:30;5.32;;;3.15;;
62848;SDS011;48941;49.516;8.286;2023-04-12T13:07:59;9.88;;;2.95;;
62848;SDS011;48941;49.516;8.286;2023-04-12T13:10:26;5.60;;;2.30;;
62848;SDS011;48941;49.516;8.286;2023-04-12T13:12:54;3.83;;;2.13;;
62848;SDS011;48941;49.516;8.286;2023-04-12T13:15:22;2.67;;;1.90;;
62848;SDS011;48941;49.516;8.286;2023-04-12T13:17:50;3.33;;;2.10;;
62848;SDS011;48941;49.516;8.286;2023-04-12T13:20:19;3.15;;;2.20;;
62848;SDS011;48941;49.516;8.286;2023-04-12T13:22:47;7.65;;;2.60;;
62848;SDS011;48941;49.516;8.286;2023-04-12T13:25:16;5.82;;;2.53;;
62848;SDS011;48941;49.516;8.286;2023-04-12T13:27:46;3.13;;;2.15;;
62848;SDS011;48941;49.516;8.286;2023-04-12T13:30:14;4.47;;;2.17;;
62848;SDS011;48941;49.516;8.286;2023-04-12T13:32:42;0.85;;;0.70;;
62848;SDS011;48941;49.516;8.286;2023-04-12T13:35:10;0.35;;;0.35;;
62848;SDS011;48941;49.516;8.286;2023-04-12T13:37:39;0.40;;;0.40;;
62848;SDS011;48941;49.516;8.286;2023-04-12T13:40:07;0.40;;;0.40;;
62848;SDS011;48941;49.516;8.286;2023-04-12T13:42:37;0.50;;;0.50;;
62848;SDS011;48941;49.516;8.286;2023-04-12T13:45:05;0.50;;;0.50;;
62848;SDS011;48941;49.516;8.286;2023-04-12T13:47:34;0.40;;;0.40;;
62848;SDS011;48941;49.516;8.286;2023-04-12T13:50:02;0.50;;;0.50;;
62848;SDS011;48941;49.516;8.286;2023-04-12T13:52:30;0.50;;;0.50;;
62848;SDS011;48941;49.516;8.286;2023-04-12T13:54:58;0.73;;;0.73;;
62848;SDS011;48941;49.516;8.286;2023-04-12T13:57:26;0.95;;;0.70;;
62848;SDS011;48941;49.516;8.286;2023-04-12T13:59:55;0.80;;;0.80;;
62848;SDS011;48941;49.516;8.286;2023-04-12T14:02:23;1.35;;;0.88;;
62848;SDS011;48941;49.516;8.286;2023-04-12T14:04:52;0.77;;;0.65;;
62848;SDS011;48941;49.516;8.286;2023-04-12T14:07:20;0.70;;;0.60;;
62848;SDS011;48941;49.516;8.286;2023-04-12T14:09:49;2.80;;;0.52;;
62848;SDS011;48941;49.516;8.286;2023-04-12T14:12:17;0.80;;;0.80;;
62848;SDS011;48941;49.516;8.286;2023-04-12T14:14:44;0.50;;;0.50;;
62848;SDS011;48941;49.516;8.286;2023-04-12T14:17:14;0.50;;;0.50;;
62848;SDS011;48941;49.516;8.286;2023-04-12T14:19:41;1.38;;;0.50;;
62848;SDS011;48941;49.516;8.286;2023-04-12T14:22:09;0.50;;;0.50;;
62848;SDS011;48941;49.516;8.286;2023-04-12T14:24:37;0.68;;;0.65;;
62848;SDS011;48941;49.516;8.286;2023-04-12T14:27:05;0.80;;;0.80;;
62848;SDS011;48941;49.516;8.286;2023-04-12T14:29:33;0.70;;;0.70;;
62848;SDS011;48941;49.516;8.286;2023-04-12T14:32:00;0.80;;;0.80;;
62848;SDS011;48941;49.516;8.286;2023-04-12T14:34:29;1.10;;;0.75;;
62848;SDS011;48941;49.516;8.286;2023-04-12T14:36:57;1.52;;;0.70;;
62848;SDS011;48941;49.516;8.286;2023-04-12T14:39:25;0.68;;;0.60;;
62848;SDS011;48941;49.516;8.286;2023-04-12T14:41:53;1.27;;;0.70;;
62848;SDS011;48941;49.516;8.286;2023-04-12T14:44:22;0.82;;;0.50;;
62848;SDS011;48941;49.516;8.286;2023-04-12T14:46:51;0.88;;;0.70;;
62848;SDS011;48941;49.516;8.286;2023-04-12T14:49:19;0.60;;;0.60;;
62848;SDS011;48941;49.516;8.286;2023-04-12T14:51:48;0.95;;;0.77;;
62848;SDS011;48941;49.516;8.286;2023-04-12T14:54:16;0.43;;;0.43;;
62848;SDS011;48941;49.516;8.286;2023-04-12T14:56:44;0.70;;;0.70;;
62848;SDS011;48941;49.516;8.286;2023-04-12T14:59:18;2.65;;;0.75;;
62848;SDS011;48941;49.516;8.286;2023-04-12T15:01:46;2.15;;;1.50;;
62848;SDS011;48941;49.516;8.286;2023-04-12T15:04:14;1.17;;;1.10;;
62848;SDS011;48941;49.516;8.286;2023-04-12T15:06:42;1.55;;;1.45;;
62848;SDS011;48941;49.516;8.286;2023-04-12T15:09:12;0.60;;;0.60;;
62848;SDS011;48941;49.516;8.286;2023-04-12T15:11:40;0.63;;;0.63;;
62848;SDS011;48941;49.516;8.286;2023-04-12T15:14:12;0.70;;;0.70;;
62848;SDS011;48941;49.516;8.286;2023-04-12T15:16:43;0.98;;;0.80;;
62848;SDS011;48941;49.516;8.286;2023-04-12T15:19:11;0.80;;;0.70;;